createdAt,value
2023-03-01T00:01:19.860Z,2.80
2023-03-01T00:06:25.099Z,2.70
2023-03-01T00:11:31.253Z,2.70
2023-03-01T00:16:39.738Z,2.70
2023-03-01T00:21:44.965Z,2.70
2023-03-01T00:26:48.712Z,2.70
2023-03-01T00:31:52.842Z,2.70
2023-03-01T00:37:06.246Z,2.80
2023-03-01T00:42:10.508Z,2.70
2023-03-01T00:47:14.940Z,2.70
2023-03-01T00:52:19.738Z,2.60
2023-03-01T00:57:23.130Z,2.60
2023-03-01T01:02:26.612Z,2.60
2023-03-01T01:07:31.368Z,2.60
2023-03-01T01:12:34.849Z,2.40
2023-03-01T01:17:38.297Z,2.30
2023-03-01T01:22:45.894Z,2.30
2023-03-01T01:27:49.529Z,2.30
2023-03-01T01:32:52.903Z,2.30
2023-03-01T01:37:57.852Z,2.20
2023-03-01T01:43:01.421Z,2.20
2023-03-01T01:48:09.434Z,2.20
2023-03-01T01:53:18.221Z,2.20
2023-03-01T01:58:23.896Z,2.20
2023-03-01T02:03:34.314Z,2.10
2023-03-01T02:08:42.347Z,2.10
2023-03-01T02:13:46.127Z,2.10
2023-03-01T02:18:49.938Z,2.10
2023-03-01T02:23:56.553Z,2.10
2023-03-01T02:29:01.562Z,2.10
2023-03-01T02:34:06.658Z,2.00
2023-03-01T02:39:15.414Z,1.80
2023-03-01T02:44:20.517Z,1.70
2023-03-01T02:49:26.980Z,1.70
2023-03-01T02:54:33.494Z,1.70
2023-03-01T02:59:41.827Z,1.70
2023-03-01T03:04:45.246Z,1.70
2023-03-01T03:09:48.979Z,1.70
2023-03-01T03:14:53.981Z,1.70
2023-03-01T03:19:57.409Z,1.70
2023-03-01T03:25:00.795Z,1.60
2023-03-01T03:30:09.880Z,1.60
2023-03-01T03:35:13.352Z,1.60
2023-03-01T03:40:16.947Z,1.70
2023-03-01T03:45:22.188Z,1.70
2023-03-01T03:50:25.595Z,1.70
2023-03-01T03:55:31.634Z,1.60
2023-03-01T04:00:37.903Z,1.60
2023-03-01T04:05:42.593Z,1.60
2023-03-01T04:10:49.256Z,1.60
2023-03-01T04:15:55.371Z,1.60
2023-03-01T04:20:58.849Z,1.50
2023-03-01T04:26:02.244Z,1.50
2023-03-01T04:31:14.932Z,1.50
2023-03-01T04:36:19.290Z,1.40
2023-03-01T04:41:24.586Z,1.40
2023-03-01T04:46:30.352Z,1.40
2023-03-01T04:51:34.525Z,1.40
2023-03-01T04:56:37.946Z,1.30
2023-03-01T05:01:43.897Z,1.30
2023-03-01T05:06:47.351Z,1.20
2023-03-01T05:11:52.675Z,1.10
2023-03-01T05:17:04.845Z,1.00
2023-03-01T05:22:08.207Z,1.00
2023-03-01T05:27:12.868Z,1.10
2023-03-01T05:32:18.531Z,1.20
2023-03-01T05:37:21.989Z,1.10
2023-03-01T05:42:25.370Z,1.10
2023-03-01T05:47:30.046Z,1.20
2023-03-01T05:52:33.434Z,1.20
2023-03-01T05:57:36.839Z,1.20
2023-03-01T06:02:42.026Z,1.10
2023-03-01T06:07:45.774Z,1.00
2023-03-01T06:12:49.612Z,1.00
2023-03-01T06:17:59.708Z,1.00
2023-03-01T06:23:03.568Z,1.00
2023-03-01T06:28:06.925Z,0.90
2023-03-01T06:33:11.664Z,0.80
2023-03-01T06:38:15.973Z,0.80
2023-03-01T06:43:19.401Z,0.90
2023-03-01T06:48:24.177Z,1.10
2023-03-01T06:53:27.543Z,1.20
2023-03-01T06:58:31.158Z,1.30
2023-03-01T07:03:36.002Z,1.40
2023-03-01T07:08:39.687Z,1.50
2023-03-01T07:13:43.766Z,1.60
2023-03-01T07:18:48.755Z,1.70
2023-03-01T07:23:52.179Z,1.80
2023-03-01T07:28:55.555Z,1.90
2023-03-01T07:34:00.375Z,2.10
2023-03-01T07:39:04.383Z,2.10
2023-03-01T07:44:08.211Z,2.10
2023-03-01T07:49:13.427Z,2.20
2023-03-01T07:54:16.846Z,2.30
2023-03-01T07:59:20.658Z,2.30
2023-03-01T08:04:25.904Z,2.40
2023-03-01T08:09:29.361Z,2.50
2023-03-01T08:14:32.843Z,2.60
2023-03-01T08:19:37.617Z,2.70
2023-03-01T08:24:41.315Z,2.80
2023-03-01T08:29:45.045Z,2.90
2023-03-01T08:34:50.214Z,3.00
2023-03-01T08:39:53.901Z,3.00
2023-03-01T08:44:57.827Z,3.20
2023-03-01T08:50:03.174Z,3.30
2023-03-01T08:55:07.687Z,3.30
2023-03-01T09:00:15.929Z,3.40
2023-03-01T09:05:20.721Z,3.50
2023-03-01T09:10:24.124Z,3.50
2023-03-01T09:15:27.685Z,3.50
2023-03-01T09:20:33.446Z,3.60
2023-03-01T09:25:37.042Z,3.70
2023-03-01T09:30:40.794Z,3.80
2023-03-01T09:35:47.780Z,3.90
2023-03-01T09:40:51.286Z,4.00
2023-03-01T09:45:57.679Z,4.10
2023-03-01T09:51:09.225Z,4.20
2023-03-01T09:56:21.985Z,4.30
2023-03-01T10:01:35.994Z,4.30
2023-03-01T10:06:45.922Z,4.40
2023-03-01T10:11:54.174Z,4.50
2023-03-01T10:17:03.740Z,4.60
2023-03-01T10:22:15.478Z,4.70
2023-03-01T10:27:24.444Z,4.80
2023-03-01T10:32:28.898Z,4.90
2023-03-01T10:37:33.777Z,4.90
2023-03-01T10:42:41.283Z,5.10
2023-03-01T10:47:44.914Z,5.20
2023-03-01T10:53:01.139Z,5.40
2023-03-01T10:58:20.523Z,5.50
2023-03-01T11:03:26.741Z,5.70
2023-03-01T11:08:40.700Z,5.80
2023-03-01T11:13:54.032Z,5.90
2023-03-01T11:19:01.062Z,6.00
2023-03-01T11:24:08.998Z,6.10
2023-03-01T11:29:23.382Z,6.30
2023-03-01T11:34:38.268Z,6.40
2023-03-01T11:39:48.917Z,6.50
2023-03-01T11:44:57.156Z,6.60
2023-03-01T11:50:21.675Z,6.90
2023-03-01T11:55:43.428Z,6.90
2023-03-01T12:01:05.370Z,7.10
2023-03-01T12:06:28.613Z,7.20
2023-03-01T12:11:48.834Z,7.30
2023-03-01T12:17:06.327Z,7.50
2023-03-01T12:22:26.200Z,7.60
2023-03-01T12:27:49.837Z,7.80
2023-03-01T12:33:04.932Z,7.90
2023-03-01T12:38:20.243Z,8.00
2023-03-01T12:43:37.091Z,8.20
2023-03-01T12:48:49.822Z,8.30
2023-03-01T12:53:55.308Z,8.50
2023-03-01T12:59:10.241Z,8.50
2023-03-01T13:04:33.849Z,8.60
2023-03-01T13:09:44.638Z,8.70
2023-03-01T13:14:49.464Z,8.90
2023-03-01T13:19:59.625Z,9.00
2023-03-01T13:25:16.796Z,9.00
2023-03-01T13:30:44.024Z,9.10
2023-03-01T13:35:47.629Z,9.20
2023-03-01T13:41:01.943Z,9.30
2023-03-01T13:46:16.775Z,9.50
2023-03-01T13:51:25.932Z,9.60
2023-03-01T13:56:35.236Z,9.70
2023-03-01T14:01:42.447Z,9.70
2023-03-01T14:06:47.276Z,9.70
2023-03-01T14:12:19.346Z,9.80
2023-03-01T14:17:59.676Z,9.80
2023-03-01T14:23:13.790Z,9.80
2023-03-01T14:28:19.537Z,10.00
2023-03-01T14:33:27.631Z,10.20
2023-03-01T14:38:35.822Z,10.30
2023-03-01T14:43:41.138Z,10.50
2023-03-01T14:48:46.408Z,10.40
2023-03-01T14:53:51.497Z,10.40
2023-03-01T14:58:55.896Z,10.30
2023-03-01T15:04:02.348Z,10.10
2023-03-01T15:09:06.532Z,10.00
2023-03-01T15:14:28.409Z,9.90
2023-03-01T15:19:33.263Z,9.80
2023-03-01T15:24:37.445Z,9.60
2023-03-01T15:29:41.721Z,9.50
2023-03-01T15:34:46.804Z,9.40
2023-03-01T15:39:56.347Z,9.30
2023-03-01T15:45:11.119Z,9.20
2023-03-01T15:50:21.060Z,9.10
2023-03-01T15:55:27.037Z,9.00
2023-03-01T16:00:31.032Z,8.90
2023-03-01T16:05:37.995Z,8.80
2023-03-01T16:10:42.092Z,8.70
2023-03-01T16:15:45.547Z,8.60
2023-03-01T16:20:50.780Z,8.60
2023-03-01T16:25:54.399Z,8.50
2023-03-01T16:30:58.107Z,8.30
2023-03-01T16:36:03.498Z,8.30
2023-03-01T16:41:07.093Z,8.20
2023-03-01T16:46:14.020Z,8.10
2023-03-01T16:51:19.266Z,8.00
2023-03-01T16:56:22.719Z,8.00
2023-03-01T17:01:26.934Z,7.90
2023-03-01T17:06:33.603Z,7.80
2023-03-01T17:11:37.862Z,7.70
2023-03-01T17:16:42.168Z,7.70
2023-03-01T17:21:47.174Z,7.60
2023-03-01T17:26:50.665Z,7.60
2023-03-01T17:31:55.894Z,7.50
2023-03-01T17:37:01.030Z,7.20
2023-03-01T17:42:06.703Z,7.20
2023-03-01T17:47:11.873Z,7.10
2023-03-01T17:52:16.715Z,7.10
2023-03-01T17:57:20.146Z,7.00
2023-03-01T18:02:23.777Z,6.90
2023-03-01T18:07:29.688Z,6.90
2023-03-01T18:12:33.582Z,6.80
2023-03-01T18:17:36.988Z,6.70
2023-03-01T18:22:41.974Z,6.70
2023-03-01T18:27:45.924Z,6.60
2023-03-01T18:32:56.132Z,6.50
2023-03-01T18:38:00.908Z,6.50
2023-03-01T18:43:04.372Z,6.30
2023-03-01T18:48:08.046Z,6.10
2023-03-01T18:53:12.815Z,6.00
2023-03-01T18:58:16.291Z,5.90
2023-03-01T19:03:19.718Z,5.90
2023-03-01T19:08:24.714Z,5.80
2023-03-01T19:13:29.022Z,5.80
2023-03-01T19:18:32.443Z,5.80
2023-03-01T19:23:38.568Z,5.80
2023-03-01T19:28:42.563Z,5.70
2023-03-01T19:33:46.520Z,5.60
2023-03-01T19:38:51.751Z,5.60
2023-03-01T19:43:55.428Z,5.60
2023-03-01T19:49:00.472Z,5.50
2023-03-01T19:54:06.497Z,5.40
2023-03-01T19:59:09.927Z,5.40
2023-03-01T20:04:13.935Z,5.30
2023-03-01T20:09:22.235Z,5.20
2023-03-01T20:14:25.971Z,5.20
2023-03-01T20:19:29.765Z,5.20
2023-03-01T20:24:34.547Z,5.20
2023-03-01T20:29:37.975Z,5.20
2023-03-01T20:34:41.700Z,5.10
2023-03-01T20:39:46.663Z,5.00
2023-03-01T20:44:50.629Z,5.00
2023-03-01T20:49:54.048Z,4.80
2023-03-01T20:54:59.658Z,4.50
2023-03-01T21:00:03.707Z,4.30
2023-03-01T21:05:07.834Z,4.40
2023-03-01T21:10:14.202Z,4.40
2023-03-01T21:15:28.584Z,4.50
2023-03-01T21:20:32.900Z,4.50
2023-03-01T21:25:38.498Z,4.40
2023-03-01T21:30:41.874Z,4.40
2023-03-01T21:35:45.331Z,4.40
2023-03-01T21:40:50.084Z,4.40
2023-03-01T21:45:53.567Z,4.40
2023-03-01T21:50:57.146Z,4.40
2023-03-01T21:56:02.305Z,4.40
2023-03-01T22:01:11.014Z,4.30
2023-03-01T22:06:30.574Z,4.30
2023-03-01T22:11:39.446Z,4.30
2023-03-01T22:16:45.541Z,4.20
2023-03-01T22:21:50.933Z,4.20
2023-03-01T22:26:56.148Z,4.20
2023-03-01T22:32:00.111Z,4.10
2023-03-01T22:37:03.862Z,4.10
2023-03-01T22:42:09.786Z,4.00
2023-03-01T22:47:13.357Z,4.00
2023-03-01T22:52:16.816Z,4.00
2023-03-01T22:57:21.835Z,3.90
2023-03-01T23:02:25.489Z,3.90
2023-03-01T23:07:28.978Z,3.90
2023-03-01T23:12:34.492Z,3.80
2023-03-01T23:17:38.197Z,3.80
2023-03-01T23:22:41.933Z,3.70
2023-03-01T23:27:46.723Z,3.70
2023-03-01T23:32:50.517Z,3.60
2023-03-01T23:37:53.940Z,3.60
2023-03-01T23:42:58.682Z,3.60
2023-03-01T23:48:02.099Z,3.50
2023-03-01T23:53:05.520Z,3.50
2023-03-01T23:58:10.401Z,3.40
